sensor_id;sensor_type;location;lat;lon;timestamp;P1;durP1;ratioP1;P2;durP2;ratioP2
57327;SDS011;43162;51.040;18.244;2023-11-21T00:00:13;11.60;;;3.90;;
57327;SDS011;43162;51.040;18.244;2023-11-21T00:02:40;11.60;;;4.80;;
57327;SDS011;43162;51.040;18.244;2023-11-21T00:05:09;8.00;;;5.10;;
57327;SDS011;43162;51.040;18.244;2023-11-21T00:07:36;7.30;;;4.40;;
57327;SDS011;43162;51.040;18.244;2023-11-21T00:10:02;5.90;;;3.50;;
57327;SDS011;43162;51.040;18.244;2023-11-21T00:12:30;6.90;;;3.90;;
57327;SDS011;43162;51.040;18.244;2023-11-21T00:14:57;5.10;;;2.90;;
57327;SDS011;43162;51.040;18.244;2023-11-21T00:17:23;7.60;;;3.70;;
57327;SDS011;43162;51.040;18.244;2023-11-21T00:19:49;6.10;;;3.80;;
57327;SDS011;43162;51.040;18.244;2023-11-21T00:22:14;10.30;;;4.40;;
57327;SDS011;43162;51.040;18.244;2023-11-21T00:24:41;7.10;;;3.90;;
57327;SDS011;43162;51.040;18.244;2023-11-21T00:27:06;6.50;;;4.30;;
57327;SDS011;43162;51.040;18.244;2023-11-21T00:29:32;6.90;;;4.50;;
57327;SDS011;43162;51.040;18.244;2023-11-21T00:31:57;10.70;;;4.80;;
57327;SDS011;43162;51.040;18.244;2023-11-21T00:34:23;8.50;;;3.80;;
57327;SDS011;43162;51.040;18.244;2023-11-21T00:36:48;5.90;;;4.60;;
57327;SDS011;43162;51.040;18.244;2023-11-21T00:39:14;9.20;;;4.70;;
57327;SDS011;43162;51.040;18.244;2023-11-21T00:41:39;7.10;;;4.40;;
57327;SDS011;43162;51.040;18.244;2023-11-21T00:44:05;6.60;;;4.10;;
57327;SDS011;43162;51.040;18.244;2023-11-21T00:46:31;7.20;;;4.20;;
57327;SDS011;43162;51.040;18.244;2023-11-21T00:48:57;6.50;;;4.50;;
57327;SDS011;43162;51.040;18.244;2023-11-21T00:51:23;6.50;;;3.20;;
57327;SDS011;43162;51.040;18.244;2023-11-21T00:53:49;4.20;;;3.00;;
57327;SDS011;43162;51.040;18.244;2023-11-21T00:56:15;5.80;;;4.00;;
57327;SDS011;43162;51.040;18.244;2023-11-21T00:58:41;8.70;;;4.60;;
57327;SDS011;43162;51.040;18.244;2023-11-21T01:03:37;6.90;;;4.40;;
57327;SDS011;43162;51.040;18.244;2023-11-21T01:06:03;6.40;;;4.10;;
57327;SDS011;43162;51.040;18.244;2023-11-21T01:08:32;5.30;;;3.50;;
57327;SDS011;43162;51.040;18.244;2023-11-21T01:10:58;6.00;;;3.70;;
57327;SDS011;43162;51.040;18.244;2023-11-21T01:13:23;4.50;;;3.10;;
57327;SDS011;43162;51.040;18.244;2023-11-21T01:15:54;5.20;;;3.20;;
57327;SDS011;43162;51.040;18.244;2023-11-21T01:18:20;6.40;;;3.00;;
57327;SDS011;43162;51.040;18.244;2023-11-21T01:20:46;4.80;;;3.50;;
57327;SDS011;43162;51.040;18.244;2023-11-21T01:23:14;5.30;;;3.00;;
57327;SDS011;43162;51.040;18.244;2023-11-21T01:25:40;4.50;;;3.10;;
57327;SDS011;43162;51.040;18.244;2023-11-21T01:28:06;5.80;;;3.50;;
57327;SDS011;43162;51.040;18.244;2023-11-21T01:30:32;3.80;;;2.80;;
57327;SDS011;43162;51.040;18.244;2023-11-21T01:32:58;7.30;;;3.50;;
57327;SDS011;43162;51.040;18.244;2023-11-21T01:35:23;6.90;;;4.30;;
57327;SDS011;43162;51.040;18.244;2023-11-21T01:37:49;7.30;;;4.50;;
57327;SDS011;43162;51.040;18.244;2023-11-21T01:40:15;7.30;;;4.30;;
57327;SDS011;43162;51.040;18.244;2023-11-21T01:42:41;7.10;;;4.80;;
57327;SDS011;43162;51.040;18.244;2023-11-21T01:45:09;7.80;;;4.50;;
57327;SDS011;43162;51.040;18.244;2023-11-21T01:47:37;7.50;;;5.10;;
57327;SDS011;43162;51.040;18.244;2023-11-21T01:50:03;5.20;;;3.60;;
57327;SDS011;43162;51.040;18.244;2023-11-21T01:52:30;5.00;;;2.90;;
57327;SDS011;43162;51.040;18.244;2023-11-21T01:54:56;4.20;;;1.90;;
57327;SDS011;43162;51.040;18.244;2023-11-21T01:57:23;1.20;;;0.90;;
57327;SDS011;43162;51.040;18.244;2023-11-21T01:59:48;0.70;;;0.60;;
57327;SDS011;43162;51.040;18.244;2023-11-21T02:02:15;0.80;;;0.70;;
57327;SDS011;43162;51.040;18.244;2023-11-21T02:04:41;0.80;;;0.60;;
57327;SDS011;43162;51.040;18.244;2023-11-21T02:07:06;2.40;;;0.40;;
57327;SDS011;43162;51.040;18.244;2023-11-21T02:09:32;0.50;;;0.40;;
57327;SDS011;43162;51.040;18.244;2023-11-21T02:12:03;1.10;;;0.40;;
57327;SDS011;43162;51.040;18.244;2023-11-21T02:14:29;0.30;;;0.30;;
57327;SDS011;43162;51.040;18.244;2023-11-21T02:16:56;1.30;;;0.30;;
57327;SDS011;43162;51.040;18.244;2023-11-21T02:19:23;1.30;;;0.40;;
57327;SDS011;43162;51.040;18.244;2023-11-21T02:21:50;0.80;;;0.40;;
57327;SDS011;43162;51.040;18.244;2023-11-21T02:24:20;0.70;;;0.60;;
57327;SDS011;43162;51.040;18.244;2023-11-21T02:26:46;0.40;;;0.30;;
57327;SDS011;43162;51.040;18.244;2023-11-21T02:29:12;0.50;;;0.40;;
57327;SDS011;43162;51.040;18.244;2023-11-21T02:31:38;1.80;;;1.00;;
57327;SDS011;43162;51.040;18.244;2023-11-21T02:34:13;0.90;;;0.70;;
57327;SDS011;43162;51.040;18.244;2023-11-21T02:36:40;0.70;;;0.70;;
57327;SDS011;43162;51.040;18.244;2023-11-21T02:39:08;1.30;;;1.10;;
57327;SDS011;43162;51.040;18.244;2023-11-21T02:41:34;1.90;;;1.20;;
57327;SDS011;43162;51.040;18.244;2023-11-21T02:44:00;3.80;;;1.10;;
57327;SDS011;43162;51.040;18.244;2023-11-21T02:46:26;1.70;;;1.10;;
57327;SDS011;43162;51.040;18.244;2023-11-21T02:48:52;2.80;;;1.10;;
57327;SDS011;43162;51.040;18.244;2023-11-21T02:51:19;0.80;;;0.70;;
57327;SDS011;43162;51.040;18.244;2023-11-21T02:53:45;3.40;;;0.70;;
57327;SDS011;43162;51.040;18.244;2023-11-21T02:56:12;2.40;;;0.80;;
57327;SDS011;43162;51.040;18.244;2023-11-21T02:58:37;0.80;;;0.60;;
57327;SDS011;43162;51.040;18.244;2023-11-21T03:01:06;1.20;;;0.60;;
57327;SDS011;43162;51.040;18.244;2023-11-21T03:03:33;1.20;;;0.70;;
57327;SDS011;43162;51.040;18.244;2023-11-21T03:05:58;2.60;;;0.80;;
57327;SDS011;43162;51.040;18.244;2023-11-21T03:08:24;3.50;;;1.00;;
57327;SDS011;43162;51.040;18.244;2023-11-21T03:10:50;2.80;;;1.10;;
57327;SDS011;43162;51.040;18.244;2023-11-21T03:13:15;1.40;;;0.80;;
57327;SDS011;43162;51.040;18.244;2023-11-21T03:15:41;4.20;;;1.30;;
57327;SDS011;43162;51.040;18.244;2023-11-21T03:18:08;4.10;;;2.00;;
57327;SDS011;43162;51.040;18.244;2023-11-21T03:20:33;2.80;;;1.30;;
57327;SDS011;43162;51.040;18.244;2023-11-21T03:23:00;4.30;;;1.90;;
57327;SDS011;43162;51.040;18.244;2023-11-21T03:25:25;4.40;;;2.40;;
57327;SDS011;43162;51.040;18.244;2023-11-21T03:27:51;4.50;;;1.70;;
57327;SDS011;43162;51.040;18.244;2023-11-21T03:30:17;3.10;;;1.80;;
57327;SDS011;43162;51.040;18.244;2023-11-21T03:32:43;4.50;;;2.70;;
57327;SDS011;43162;51.040;18.244;2023-11-21T03:35:08;2.00;;;1.50;;
57327;SDS011;43162;51.040;18.244;2023-11-21T03:37:34;4.60;;;1.90;;
57327;SDS011;43162;51.040;18.244;2023-11-21T03:39:59;3.20;;;1.90;;
57327;SDS011;43162;51.040;18.244;2023-11-21T03:42:25;3.20;;;2.40;;
57327;SDS011;43162;51.040;18.244;2023-11-21T03:44:52;3.30;;;1.70;;
57327;SDS011;43162;51.040;18.244;2023-11-21T03:47:17;5.00;;;2.50;;
57327;SDS011;43162;51.040;18.244;2023-11-21T03:49:46;4.20;;;2.10;;
57327;SDS011;43162;51.040;18.244;2023-11-21T03:52:12;4.40;;;2.40;;
57327;SDS011;43162;51.040;18.244;2023-11-21T03:54:37;5.70;;;2.60;;
57327;SDS011;43162;51.040;18.244;2023-11-21T03:57:03;3.60;;;2.10;;
57327;SDS011;43162;51.040;18.244;2023-11-21T03:59:29;9.00;;;3.20;;
57327;SDS011;43162;51.040;18.244;2023-11-21T04:01:55;5.80;;;2.60;;
57327;SDS011;43162;51.040;18.244;2023-11-21T04:04:22;7.70;;;2.80;;
57327;SDS011;43162;51.040;18.244;2023-11-21T04:06:48;6.30;;;2.60;;
57327;SDS011;43162;51.040;18.244;2023-11-21T04:09:13;6.30;;;3.30;;
57327;SDS011;43162;51.040;18.244;2023-11-21T04:11:39;5.30;;;2.70;;
57327;SDS011;43162;51.040;18.244;2023-11-21T04:14:04;4.70;;;3.00;;
57327;SDS011;43162;51.040;18.244;2023-11-21T04:16:30;9.40;;;3.90;;
57327;SDS011;43162;51.040;18.244;2023-11-21T04:18:55;5.00;;;2.90;;
57327;SDS011;43162;51.040;18.244;2023-11-21T04:21:21;5.30;;;2.90;;
57327;SDS011;43162;51.040;18.244;2023-11-21T04:23:46;6.60;;;2.70;;
57327;SDS011;43162;51.040;18.244;2023-11-21T04:26:12;5.30;;;2.80;;
57327;SDS011;43162;51.040;18.244;2023-11-21T04:28:37;4.90;;;2.50;;
57327;SDS011;43162;51.040;18.244;2023-11-21T04:31:03;6.50;;;2.90;;
57327;SDS011;43162;51.040;18.244;2023-11-21T04:33:28;4.60;;;2.70;;
57327;SDS011;43162;51.040;18.244;2023-11-21T04:35:54;6.00;;;3.50;;
57327;SDS011;43162;51.040;18.244;2023-11-21T04:38:20;5.20;;;3.20;;
57327;SDS011;43162;51.040;18.244;2023-11-21T04:40:45;6.60;;;3.20;;
57327;SDS011;43162;51.040;18.244;2023-11-21T04:43:11;6.60;;;2.60;;
57327;SDS011;43162;51.040;18.244;2023-11-21T04:45:37;6.20;;;2.90;;
57327;SDS011;43162;51.040;18.244;2023-11-21T04:48:02;6.90;;;3.00;;
57327;SDS011;43162;51.040;18.244;2023-11-21T04:50:28;7.00;;;3.00;;
57327;SDS011;43162;51.040;18.244;2023-11-21T04:52:54;5.90;;;2.70;;
57327;SDS011;43162;51.040;18.244;2023-11-21T04:55:19;7.90;;;3.30;;
57327;SDS011;43162;51.040;18.244;2023-11-21T04:57:45;5.00;;;2.60;;
57327;SDS011;43162;51.040;18.244;2023-11-21T05:00:12;6.30;;;3.00;;
57327;SDS011;43162;51.040;18.244;2023-11-21T05:02:39;4.30;;;2.40;;
57327;SDS011;43162;51.040;18.244;2023-11-21T05:05:06;6.30;;;2.90;;
57327;SDS011;43162;51.040;18.244;2023-11-21T05:07:33;4.20;;;2.60;;
57327;SDS011;43162;51.040;18.244;2023-11-21T05:10:00;8.20;;;2.80;;
57327;SDS011;43162;51.040;18.244;2023-11-21T05:12:31;5.40;;;1.70;;
57327;SDS011;43162;51.040;18.244;2023-11-21T05:15:03;2.60;;;1.60;;
57327;SDS011;43162;51.040;18.244;2023-11-21T05:17:33;3.70;;;1.60;;
57327;SDS011;43162;51.040;18.244;2023-11-21T05:19:59;2.00;;;1.00;;
57327;SDS011;43162;51.040;18.244;2023-11-21T05:22:29;4.00;;;1.10;;
57327;SDS011;43162;51.040;18.244;2023-11-21T05:24:55;3.50;;;1.40;;
57327;SDS011;43162;51.040;18.244;2023-11-21T05:27:21;3.20;;;1.80;;
57327;SDS011;43162;51.040;18.244;2023-11-21T05:29:46;4.30;;;1.70;;
57327;SDS011;43162;51.040;18.244;2023-11-21T05:32:12;2.80;;;1.40;;
57327;SDS011;43162;51.040;18.244;2023-11-21T05:34:37;2.30;;;1.20;;
57327;SDS011;43162;51.040;18.244;2023-11-21T05:37:03;2.30;;;1.40;;
57327;SDS011;43162;51.040;18.244;2023-11-21T05:39:30;5.70;;;1.60;;
57327;SDS011;43162;51.040;18.244;2023-11-21T05:41:57;2.30;;;1.30;;
57327;SDS011;43162;51.040;18.244;2023-11-21T05:44:23;2.80;;;1.20;;
57327;SDS011;43162;51.040;18.244;2023-11-21T05:46:49;1.90;;;1.00;;
57327;SDS011;43162;51.040;18.244;2023-11-21T05:49:15;1.40;;;1.00;;
57327;SDS011;43162;51.040;18.244;2023-11-21T05:51:41;1.00;;;0.80;;
57327;SDS011;43162;51.040;18.244;2023-11-21T05:54:07;3.20;;;1.70;;
57327;SDS011;43162;51.040;18.244;2023-11-21T05:56:33;3.80;;;1.30;;
57327;SDS011;43162;51.040;18.244;2023-11-21T05:58:59;2.90;;;1.30;;
57327;SDS011;43162;51.040;18.244;2023-11-21T06:01:25;1.90;;;1.10;;
57327;SDS011;43162;51.040;18.244;2023-11-21T06:03:54;4.60;;;1.60;;
57327;SDS011;43162;51.040;18.244;2023-11-21T06:06:20;4.00;;;1.40;;
57327;SDS011;43162;51.040;18.244;2023-11-21T06:08:50;3.70;;;1.60;;
57327;SDS011;43162;51.040;18.244;2023-11-21T06:11:16;1.80;;;1.60;;
57327;SDS011;43162;51.040;18.244;2023-11-21T06:13:41;3.60;;;1.80;;
57327;SDS011;43162;51.040;18.244;2023-11-21T06:16:07;3.90;;;2.50;;
57327;SDS011;43162;51.040;18.244;2023-11-21T06:18:33;8.30;;;3.70;;
57327;SDS011;43162;51.040;18.244;2023-11-21T06:20:58;7.40;;;4.00;;
57327;SDS011;43162;51.040;18.244;2023-11-21T06:23:26;8.30;;;4.10;;
57327;SDS011;43162;51.040;18.244;2023-11-21T06:25:51;7.00;;;3.90;;
57327;SDS011;43162;51.040;18.244;2023-11-21T06:28:18;12.00;;;4.80;;
57327;SDS011;43162;51.040;18.244;2023-11-21T06:30:44;9.80;;;4.30;;
57327;SDS011;43162;51.040;18.244;2023-11-21T06:33:12;6.70;;;4.30;;
57327;SDS011;43162;51.040;18.244;2023-11-21T06:35:38;6.50;;;4.00;;
57327;SDS011;43162;51.040;18.244;2023-11-21T06:38:03;7.60;;;4.20;;
57327;SDS011;43162;51.040;18.244;2023-11-21T06:40:29;7.20;;;4.10;;
57327;SDS011;43162;51.040;18.244;2023-11-21T06:42:55;5.50;;;3.50;;
57327;SDS011;43162;51.040;18.244;2023-11-21T06:45:20;5.20;;;3.50;;
57327;SDS011;43162;51.040;18.244;2023-11-21T06:47:46;6.80;;;4.00;;
57327;SDS011;43162;51.040;18.244;2023-11-21T06:50:12;7.50;;;3.80;;
57327;SDS011;43162;51.040;18.244;2023-11-21T06:52:38;6.70;;;3.50;;
57327;SDS011;43162;51.040;18.244;2023-11-21T06:55:04;5.90;;;3.50;;
57327;SDS011;43162;51.040;18.244;2023-11-21T06:57:30;9.10;;;4.60;;
57327;SDS011;43162;51.040;18.244;2023-11-21T06:59:56;8.00;;;4.60;;
57327;SDS011;43162;51.040;18.244;2023-11-21T07:02:22;11.40;;;4.70;;
57327;SDS011;43162;51.040;18.244;2023-11-21T07:04:49;8.80;;;5.10;;
57327;SDS011;43162;51.040;18.244;2023-11-21T07:07:14;10.40;;;5.10;;
57327;SDS011;43162;51.040;18.244;2023-11-21T07:09:40;8.80;;;4.80;;
57327;SDS011;43162;51.040;18.244;2023-11-21T07:12:05;6.70;;;4.80;;
57327;SDS011;43162;51.040;18.244;2023-11-21T07:14:35;7.70;;;4.60;;
57327;SDS011;43162;51.040;18.244;2023-11-21T07:17:02;7.90;;;5.20;;
57327;SDS011;43162;51.040;18.244;2023-11-21T07:19:29;7.20;;;4.90;;
57327;SDS011;43162;51.040;18.244;2023-11-21T07:21:54;8.20;;;4.70;;
57327;SDS011;43162;51.040;18.244;2023-11-21T07:24:20;8.30;;;3.60;;
57327;SDS011;43162;51.040;18.244;2023-11-21T07:26:47;6.90;;;4.10;;
57327;SDS011;43162;51.040;18.244;2023-11-21T07:29:13;7.70;;;3.60;;
57327;SDS011;43162;51.040;18.244;2023-11-21T07:31:39;6.70;;;4.50;;
57327;SDS011;43162;51.040;18.244;2023-11-21T07:34:06;6.60;;;4.50;;
57327;SDS011;43162;51.040;18.244;2023-11-21T07:36:33;10.00;;;5.00;;
57327;SDS011;43162;51.040;18.244;2023-11-21T07:38:59;6.50;;;4.40;;
57327;SDS011;43162;51.040;18.244;2023-11-21T07:41:25;7.50;;;4.80;;
57327;SDS011;43162;51.040;18.244;2023-11-21T07:43:51;8.90;;;5.10;;
57327;SDS011;43162;51.040;18.244;2023-11-21T07:46:17;6.30;;;4.40;;
57327;SDS011;43162;51.040;18.244;2023-11-21T07:48:43;7.40;;;4.90;;
57327;SDS011;43162;51.040;18.244;2023-11-21T07:51:09;6.30;;;4.50;;
57327;SDS011;43162;51.040;18.244;2023-11-21T07:53:35;7.10;;;4.20;;
57327;SDS011;43162;51.040;18.244;2023-11-21T07:56:08;6.70;;;4.50;;
57327;SDS011;43162;51.040;18.244;2023-11-21T07:58:35;4.60;;;3.70;;
57327;SDS011;43162;51.040;18.244;2023-11-21T08:01:02;5.40;;;3.80;;
57327;SDS011;43162;51.040;18.244;2023-11-21T08:03:29;6.70;;;3.60;;
57327;SDS011;43162;51.040;18.244;2023-11-21T08:05:55;4.80;;;3.30;;
57327;SDS011;43162;51.040;18.244;2023-11-21T08:08:25;6.70;;;3.50;;
57327;SDS011;43162;51.040;18.244;2023-11-21T08:10:51;5.90;;;3.20;;
57327;SDS011;43162;51.040;18.244;2023-11-21T08:13:23;5.60;;;3.50;;
57327;SDS011;43162;51.040;18.244;2023-11-21T08:15:49;7.50;;;3.00;;
57327;SDS011;43162;51.040;18.244;2023-11-21T08:18:15;5.50;;;3.00;;
57327;SDS011;43162;51.040;18.244;2023-11-21T08:20:42;4.50;;;2.60;;
57327;SDS011;43162;51.040;18.244;2023-11-21T08:23:08;4.10;;;3.00;;
57327;SDS011;43162;51.040;18.244;2023-11-21T08:25:34;4.90;;;2.70;;
57327;SDS011;43162;51.040;18.244;2023-11-21T08:28:00;5.30;;;2.90;;
57327;SDS011;43162;51.040;18.244;2023-11-21T08:30:26;5.90;;;2.40;;
57327;SDS011;43162;51.040;18.244;2023-11-21T08:32:55;4.10;;;2.60;;
57327;SDS011;43162;51.040;18.244;2023-11-21T08:35:23;2.60;;;1.90;;
57327;SDS011;43162;51.040;18.244;2023-11-21T08:37:53;3.40;;;2.40;;
57327;SDS011;43162;51.040;18.244;2023-11-21T08:40:20;4.50;;;2.20;;
57327;SDS011;43162;51.040;18.244;2023-11-21T08:42:46;2.90;;;1.90;;
57327;SDS011;43162;51.040;18.244;2023-11-21T08:45:15;3.20;;;2.10;;
57327;SDS011;43162;51.040;18.244;2023-11-21T08:47:42;3.00;;;2.20;;
57327;SDS011;43162;51.040;18.244;2023-11-21T08:50:12;4.40;;;2.10;;
57327;SDS011;43162;51.040;18.244;2023-11-21T08:52:38;2.10;;;1.60;;
57327;SDS011;43162;51.040;18.244;2023-11-21T08:55:06;5.70;;;1.80;;
57327;SDS011;43162;51.040;18.244;2023-11-21T08:57:38;2.00;;;1.70;;
57327;SDS011;43162;51.040;18.244;2023-11-21T09:00:06;2.20;;;1.50;;
57327;SDS011;43162;51.040;18.244;2023-11-21T09:02:39;2.60;;;1.80;;
57327;SDS011;43162;51.040;18.244;2023-11-21T09:05:09;4.00;;;2.00;;
57327;SDS011;43162;51.040;18.244;2023-11-21T09:07:35;2.60;;;1.60;;
57327;SDS011;43162;51.040;18.244;2023-11-21T09:10:02;1.80;;;1.40;;
57327;SDS011;43162;51.040;18.244;2023-11-21T09:12:29;4.40;;;1.70;;
57327;SDS011;43162;51.040;18.244;2023-11-21T09:14:57;2.20;;;1.50;;
57327;SDS011;43162;51.040;18.244;2023-11-21T09:17:23;3.80;;;2.00;;
57327;SDS011;43162;51.040;18.244;2023-11-21T09:19:49;5.50;;;2.40;;
57327;SDS011;43162;51.040;18.244;2023-11-21T09:22:16;4.60;;;2.50;;
57327;SDS011;43162;51.040;18.244;2023-11-21T09:24:44;3.30;;;2.10;;
57327;SDS011;43162;51.040;18.244;2023-11-21T09:27:09;3.50;;;2.10;;
57327;SDS011;43162;51.040;18.244;2023-11-21T09:29:36;3.80;;;2.20;;
57327;SDS011;43162;51.040;18.244;2023-11-21T09:32:05;3.40;;;1.90;;
57327;SDS011;43162;51.040;18.244;2023-11-21T09:34:33;3.50;;;2.30;;
57327;SDS011;43162;51.040;18.244;2023-11-21T09:37:06;6.00;;;3.50;;
57327;SDS011;43162;51.040;18.244;2023-11-21T09:39:33;2.70;;;2.10;;
57327;SDS011;43162;51.040;18.244;2023-11-21T09:44:45;61.20;;;24.90;;
57327;SDS011;43162;51.040;18.244;2023-11-21T09:47:26;72.40;;;27.80;;
57327;SDS011;43162;51.040;18.244;2023-11-21T09:49:54;51.10;;;22.10;;
57327;SDS011;43162;51.040;18.244;2023-11-21T09:52:26;58.30;;;25.20;;
57327;SDS011;43162;51.040;18.244;2023-11-21T09:54:53;65.40;;;30.00;;
57327;SDS011;43162;51.040;18.244;2023-11-21T09:57:23;89.10;;;33.20;;
57327;SDS011;43162;51.040;18.244;2023-11-21T09:59:52;64.50;;;27.20;;
57327;SDS011;43162;51.040;18.244;2023-11-21T10:02:24;81.30;;;31.20;;
57327;SDS011;43162;51.040;18.244;2023-11-21T10:04:52;91.80;;;32.60;;
57327;SDS011;43162;51.040;18.244;2023-11-21T10:07:19;99.30;;;35.60;;
57327;SDS011;43162;51.040;18.244;2023-11-21T10:09:46;87.00;;;32.90;;
57327;SDS011;43162;51.040;18.244;2023-11-21T10:12:14;87.60;;;33.10;;
57327;SDS011;43162;51.040;18.244;2023-11-21T10:14:41;80.90;;;29.80;;
57327;SDS011;43162;51.040;18.244;2023-11-21T10:17:08;85.40;;;32.80;;
57327;SDS011;43162;51.040;18.244;2023-11-21T10:19:35;98.90;;;37.20;;
57327;SDS011;43162;51.040;18.244;2023-11-21T10:22:01;109.50;;;37.90;;
57327;SDS011;43162;51.040;18.244;2023-11-21T10:24:27;131.20;;;44.50;;
57327;SDS011;43162;51.040;18.244;2023-11-21T10:26:52;119.80;;;45.20;;
57327;SDS011;43162;51.040;18.244;2023-11-21T10:29:19;91.70;;;30.10;;
57327;SDS011;43162;51.040;18.244;2023-11-21T10:31:48;73.60;;;27.00;;
57327;SDS011;43162;51.040;18.244;2023-11-21T10:34:20;100.60;;;32.90;;
57327;SDS011;43162;51.040;18.244;2023-11-21T10:36:46;87.60;;;32.10;;
57327;SDS011;43162;51.040;18.244;2023-11-21T10:39:18;120.90;;;30.40;;
57327;SDS011;43162;51.040;18.244;2023-11-21T10:41:46;128.50;;;35.40;;
57327;SDS011;43162;51.040;18.244;2023-11-21T10:44:15;92.40;;;28.20;;
57327;SDS011;43162;51.040;18.244;2023-11-21T10:46:53;89.70;;;30.50;;
57327;SDS011;43162;51.040;18.244;2023-11-21T10:49:23;57.80;;;23.90;;
57327;SDS011;43162;51.040;18.244;2023-11-21T10:51:50;90.20;;;29.30;;
57327;SDS011;43162;51.040;18.244;2023-11-21T10:54:22;80.70;;;25.90;;
57327;SDS011;43162;51.040;18.244;2023-11-21T10:56:49;76.90;;;25.70;;
57327;SDS011;43162;51.040;18.244;2023-11-21T10:59:16;67.80;;;22.10;;
57327;SDS011;43162;51.040;18.244;2023-11-21T11:01:44;87.60;;;23.10;;
57327;SDS011;43162;51.040;18.244;2023-11-21T11:04:13;59.90;;;22.60;;
57327;SDS011;43162;51.040;18.244;2023-11-21T11:06:45;114.90;;;28.90;;
57327;SDS011;43162;51.040;18.244;2023-11-21T11:09:22;71.40;;;26.70;;
57327;SDS011;43162;51.040;18.244;2023-11-21T11:11:48;76.80;;;26.30;;
57327;SDS011;43162;51.040;18.244;2023-11-21T11:14:14;84.00;;;23.90;;
57327;SDS011;43162;51.040;18.244;2023-11-21T11:16:40;84.10;;;21.50;;
57327;SDS011;43162;51.040;18.244;2023-11-21T11:19:07;62.50;;;20.00;;
57327;SDS011;43162;51.040;18.244;2023-11-21T11:35:12;68.30;;;24.60;;
57327;SDS011;43162;51.040;18.244;2023-11-21T11:37:43;41.80;;;18.90;;
57327;SDS011;43162;51.040;18.244;2023-11-21T11:40:10;62.20;;;26.40;;
57327;SDS011;43162;51.040;18.244;2023-11-21T11:42:37;56.30;;;22.30;;
57327;SDS011;43162;51.040;18.244;2023-11-21T11:45:05;85.20;;;26.50;;
57327;SDS011;43162;51.040;18.244;2023-11-21T11:47:42;58.40;;;18.70;;
57327;SDS011;43162;51.040;18.244;2023-11-21T11:50:10;106.40;;;28.20;;
57327;SDS011;43162;51.040;18.244;2023-11-21T11:52:44;68.00;;;23.30;;
57327;SDS011;43162;51.040;18.244;2023-11-21T11:55:11;50.30;;;20.00;;
57327;SDS011;43162;51.040;18.244;2023-11-21T11:57:42;65.90;;;22.20;;
57327;SDS011;43162;51.040;18.244;2023-11-21T12:02:53;65.70;;;19.90;;
57327;SDS011;43162;51.040;18.244;2023-11-21T12:05:22;86.10;;;24.80;;
57327;SDS011;43162;51.040;18.244;2023-11-21T12:07:52;48.00;;;20.10;;
57327;SDS011;43162;51.040;18.244;2023-11-21T12:10:25;68.70;;;20.30;;
57327;SDS011;43162;51.040;18.244;2023-11-21T12:12:55;115.70;;;24.80;;
57327;SDS011;43162;51.040;18.244;2023-11-21T12:15:24;57.10;;;21.10;;
57327;SDS011;43162;51.040;18.244;2023-11-21T12:17:51;60.40;;;19.50;;
57327;SDS011;43162;51.040;18.244;2023-11-21T12:20:21;108.60;;;21.60;;
57327;SDS011;43162;51.040;18.244;2023-11-21T12:25:14;66.20;;;16.60;;
57327;SDS011;43162;51.040;18.244;2023-11-21T12:27:42;68.30;;;20.60;;
57327;SDS011;43162;51.040;18.244;2023-11-21T12:30:30;78.60;;;21.40;;
57327;SDS011;43162;51.040;18.244;2023-11-21T12:33:01;32.30;;;12.80;;
57327;SDS011;43162;51.040;18.244;2023-11-21T12:35:28;36.00;;;12.70;;
57327;SDS011;43162;51.040;18.244;2023-11-21T12:37:56;69.30;;;18.10;;
57327;SDS011;43162;51.040;18.244;2023-11-21T12:40:25;61.60;;;19.30;;
57327;SDS011;43162;51.040;18.244;2023-11-21T12:42:52;41.70;;;16.50;;
57327;SDS011;43162;51.040;18.244;2023-11-21T12:45:22;67.00;;;21.90;;
57327;SDS011;43162;51.040;18.244;2023-11-21T12:47:51;61.60;;;21.10;;
57327;SDS011;43162;51.040;18.244;2023-11-21T12:50:23;69.00;;;19.00;;
57327;SDS011;43162;51.040;18.244;2023-11-21T12:52:52;38.10;;;16.10;;
57327;SDS011;43162;51.040;18.244;2023-11-21T12:55:21;60.20;;;20.30;;
57327;SDS011;43162;51.040;18.244;2023-11-21T12:57:48;53.90;;;23.10;;
57327;SDS011;43162;51.040;18.244;2023-11-21T13:00:20;53.00;;;21.10;;
57327;SDS011;43162;51.040;18.244;2023-11-21T13:02:55;36.80;;;17.50;;
57327;SDS011;43162;51.040;18.244;2023-11-21T13:05:28;40.30;;;17.00;;
57327;SDS011;43162;51.040;18.244;2023-11-21T13:07:55;48.70;;;20.30;;
57327;SDS011;43162;51.040;18.244;2023-11-21T13:10:26;36.80;;;17.60;;
57327;SDS011;43162;51.040;18.244;2023-11-21T13:12:57;46.10;;;21.60;;
57327;SDS011;43162;51.040;18.244;2023-11-21T13:15:27;45.30;;;21.00;;
57327;SDS011;43162;51.040;18.244;2023-11-21T13:17:53;39.90;;;18.60;;
57327;SDS011;43162;51.040;18.244;2023-11-21T13:20:21;35.80;;;17.60;;
57327;SDS011;43162;51.040;18.244;2023-11-21T13:22:53;22.70;;;12.70;;
57327;SDS011;43162;51.040;18.244;2023-11-21T13:25:23;22.00;;;12.60;;
57327;SDS011;43162;51.040;18.244;2023-11-21T13:27:49;19.50;;;11.40;;
57327;SDS011;43162;51.040;18.244;2023-11-21T13:30:16;19.40;;;12.70;;
57327;SDS011;43162;51.040;18.244;2023-11-21T13:32:43;17.50;;;10.20;;
57327;SDS011;43162;51.040;18.244;2023-11-21T13:35:10;18.20;;;12.70;;
57327;SDS011;43162;51.040;18.244;2023-11-21T13:37:48;17.30;;;11.90;;
57327;SDS011;43162;51.040;18.244;2023-11-21T13:40:19;20.30;;;11.00;;
57327;SDS011;43162;51.040;18.244;2023-11-21T13:42:48;19.60;;;11.10;;
57327;SDS011;43162;51.040;18.244;2023-11-21T13:45:18;20.90;;;12.10;;
57327;SDS011;43162;51.040;18.244;2023-11-21T13:47:47;21.60;;;13.80;;
57327;SDS011;43162;51.040;18.244;2023-11-21T13:50:12;23.20;;;15.30;;
57327;SDS011;43162;51.040;18.244;2023-11-21T13:52:44;30.00;;;19.00;;
57327;SDS011;43162;51.040;18.244;2023-11-21T13:55:12;27.40;;;17.60;;
57327;SDS011;43162;51.040;18.244;2023-11-21T13:57:41;21.00;;;13.80;;
57327;SDS011;43162;51.040;18.244;2023-11-21T14:00:15;25.20;;;16.00;;
57327;SDS011;43162;51.040;18.244;2023-11-21T14:03:00;21.70;;;13.40;;
57327;SDS011;43162;51.040;18.244;2023-11-21T14:05:26;35.10;;;21.70;;
57327;SDS011;43162;51.040;18.244;2023-11-21T14:07:57;33.00;;;20.70;;
57327;SDS011;43162;51.040;18.244;2023-11-21T14:10:30;42.10;;;20.10;;
57327;SDS011;43162;51.040;18.244;2023-11-21T14:13:07;58.30;;;29.00;;
57327;SDS011;43162;51.040;18.244;2023-11-21T14:15:36;41.00;;;21.50;;
57327;SDS011;43162;51.040;18.244;2023-11-21T14:18:07;33.60;;;19.40;;
57327;SDS011;43162;51.040;18.244;2023-11-21T14:20:39;45.50;;;24.80;;
57327;SDS011;43162;51.040;18.244;2023-11-21T14:23:07;37.20;;;22.10;;
57327;SDS011;43162;51.040;18.244;2023-11-21T14:25:34;39.50;;;22.90;;
57327;SDS011;43162;51.040;18.244;2023-11-21T14:27:59;55.50;;;27.10;;
57327;SDS011;43162;51.040;18.244;2023-11-21T14:30:26;68.60;;;35.00;;
57327;SDS011;43162;51.040;18.244;2023-11-21T14:32:52;61.70;;;30.00;;
57327;SDS011;43162;51.040;18.244;2023-11-21T14:35:18;89.50;;;42.50;;
57327;SDS011;43162;51.040;18.244;2023-11-21T14:37:44;80.50;;;39.60;;
57327;SDS011;43162;51.040;18.244;2023-11-21T14:40:11;57.10;;;26.00;;
57327;SDS011;43162;51.040;18.244;2023-11-21T14:42:38;61.40;;;32.70;;
57327;SDS011;43162;51.040;18.244;2023-11-21T14:45:05;49.20;;;27.00;;
57327;SDS011;43162;51.040;18.244;2023-11-21T14:47:33;36.20;;;22.30;;
57327;SDS011;43162;51.040;18.244;2023-11-21T14:50:00;35.80;;;21.20;;